sensor_id;sensor_type;location;lat;lon;timestamp;P1;durP1;ratioP1;P2;durP2;ratioP2
43646;SDS011;56152;49.996;18.980;2023-03-04T00:01:33;70.30;;;28.27;;
43646;SDS011;56152;49.996;18.980;2023-03-04T00:06:37;70.30;;;28.50;;
43646;SDS011;56152;49.996;18.980;2023-03-04T00:11:43;67.00;;;27.80;;
43646;SDS011;56152;49.996;18.980;2023-03-04T00:16:45;64.37;;;26.40;;
43646;SDS011;56152;49.996;18.980;2023-03-04T00:21:49;69.63;;;27.07;;
43646;SDS011;56152;49.996;18.980;2023-03-04T00:26:54;57.53;;;24.90;;
43646;SDS011;56152;49.996;18.980;2023-03-04T00:31:58;60.50;;;24.63;;
43646;SDS011;56152;49.996;18.980;2023-03-04T00:37:01;60.37;;;24.43;;
43646;SDS011;56152;49.996;18.980;2023-03-04T00:42:07;56.23;;;22.33;;
43646;SDS011;56152;49.996;18.980;2023-03-04T00:47:09;69.93;;;26.03;;
43646;SDS011;56152;49.996;18.980;2023-03-04T00:52:12;56.83;;;23.13;;
43646;SDS011;56152;49.996;18.980;2023-03-04T00:57:16;58.63;;;23.53;;
43646;SDS011;56152;49.996;18.980;2023-03-04T01:02:18;54.17;;;23.50;;
43646;SDS011;56152;49.996;18.980;2023-03-04T01:07:23;57.53;;;23.47;;
43646;SDS011;56152;49.996;18.980;2023-03-04T01:12:28;52.17;;;21.50;;
43646;SDS011;56152;49.996;18.980;2023-03-04T01:17:30;52.70;;;22.87;;
43646;SDS011;56152;49.996;18.980;2023-03-04T01:22:35;53.80;;;21.20;;
43646;SDS011;56152;49.996;18.980;2023-03-04T01:27:42;46.80;;;20.57;;
43646;SDS011;56152;49.996;18.980;2023-03-04T01:32:44;44.73;;;19.67;;
43646;SDS011;56152;49.996;18.980;2023-03-04T01:37:46;43.13;;;19.80;;
43646;SDS011;56152;49.996;18.980;2023-03-04T01:42:51;48.87;;;20.30;;
43646;SDS011;56152;49.996;18.980;2023-03-04T01:47:56;42.43;;;19.70;;
43646;SDS011;56152;49.996;18.980;2023-03-04T01:52:59;45.30;;;20.73;;
43646;SDS011;56152;49.996;18.980;2023-03-04T01:58:08;43.67;;;18.00;;
43646;SDS011;56152;49.996;18.980;2023-03-04T02:03:12;44.87;;;20.80;;
43646;SDS011;56152;49.996;18.980;2023-03-04T02:08:19;42.90;;;21.00;;
43646;SDS011;56152;49.996;18.980;2023-03-04T02:13:25;50.53;;;20.17;;
43646;SDS011;56152;49.996;18.980;2023-03-04T02:18:27;50.87;;;22.10;;
43646;SDS011;56152;49.996;18.980;2023-03-04T02:23:29;50.27;;;21.57;;
43646;SDS011;56152;49.996;18.980;2023-03-04T02:28:39;49.53;;;20.33;;
43646;SDS011;56152;49.996;18.980;2023-03-04T02:33:41;45.93;;;21.67;;
43646;SDS011;56152;49.996;18.980;2023-03-04T02:38:44;48.80;;;22.77;;
43646;SDS011;56152;49.996;18.980;2023-03-04T02:43:48;52.70;;;22.53;;
43646;SDS011;56152;49.996;18.980;2023-03-04T02:48:53;43.03;;;20.60;;
43646;SDS011;56152;49.996;18.980;2023-03-04T02:53:56;59.07;;;22.40;;
43646;SDS011;56152;49.996;18.980;2023-03-04T02:59:01;45.37;;;21.67;;
43646;SDS011;56152;49.996;18.980;2023-03-04T03:04:03;49.63;;;23.20;;
43646;SDS011;56152;49.996;18.980;2023-03-04T03:09:05;51.90;;;22.90;;
43646;SDS011;56152;49.996;18.980;2023-03-04T03:14:10;61.87;;;23.67;;
43646;SDS011;56152;49.996;18.980;2023-03-04T03:19:13;52.60;;;22.73;;
43646;SDS011;56152;49.996;18.980;2023-03-04T03:24:16;53.00;;;23.60;;
43646;SDS011;56152;49.996;18.980;2023-03-04T03:29:21;69.10;;;28.07;;
43646;SDS011;56152;49.996;18.980;2023-03-04T03:34:24;55.00;;;23.63;;
43646;SDS011;56152;49.996;18.980;2023-03-04T03:39:26;74.13;;;29.80;;
43646;SDS011;56152;49.996;18.980;2023-03-04T03:44:30;53.57;;;23.30;;
43646;SDS011;56152;49.996;18.980;2023-03-04T03:49:32;53.33;;;22.70;;
43646;SDS011;56152;49.996;18.980;2023-03-04T03:54:38;55.53;;;24.67;;
43646;SDS011;56152;49.996;18.980;2023-03-04T03:59:41;57.23;;;24.20;;
43646;SDS011;56152;49.996;18.980;2023-03-04T04:04:45;51.30;;;20.13;;
43646;SDS011;56152;49.996;18.980;2023-03-04T04:09:48;50.07;;;21.40;;
43646;SDS011;56152;49.996;18.980;2023-03-04T04:14:53;56.57;;;23.77;;
43646;SDS011;56152;49.996;18.980;2023-03-04T04:19:55;64.47;;;24.70;;
43646;SDS011;56152;49.996;18.980;2023-03-04T04:24:58;60.17;;;25.70;;
43646;SDS011;56152;49.996;18.980;2023-03-04T04:30:04;58.20;;;22.77;;
43646;SDS011;56152;49.996;18.980;2023-03-04T04:35:10;70.50;;;28.23;;
43646;SDS011;56152;49.996;18.980;2023-03-04T04:40:23;70.70;;;27.00;;
43646;SDS011;56152;49.996;18.980;2023-03-04T04:45:28;70.57;;;28.50;;
43646;SDS011;56152;49.996;18.980;2023-03-04T04:50:30;68.63;;;28.97;;
43646;SDS011;56152;49.996;18.980;2023-03-04T04:55:32;84.87;;;37.27;;
43646;SDS011;56152;49.996;18.980;2023-03-04T05:00:36;71.00;;;27.70;;
43646;SDS011;56152;49.996;18.980;2023-03-04T05:05:38;83.60;;;33.57;;
43646;SDS011;56152;49.996;18.980;2023-03-04T05:10:46;104.37;;;42.13;;
43646;SDS011;56152;49.996;18.980;2023-03-04T05:15:51;117.63;;;48.23;;
43646;SDS011;56152;49.996;18.980;2023-03-04T05:20:58;76.07;;;30.50;;
43646;SDS011;56152;49.996;18.980;2023-03-04T05:26:01;85.47;;;35.67;;
43646;SDS011;56152;49.996;18.980;2023-03-04T05:31:08;84.50;;;33.83;;
43646;SDS011;56152;49.996;18.980;2023-03-04T05:36:10;82.97;;;34.57;;
43646;SDS011;56152;49.996;18.980;2023-03-04T05:41:13;86.33;;;37.80;;
43646;SDS011;56152;49.996;18.980;2023-03-04T05:46:19;99.73;;;37.93;;
43646;SDS011;56152;49.996;18.980;2023-03-04T05:51:26;94.63;;;39.03;;
43646;SDS011;56152;49.996;18.980;2023-03-04T05:56:29;83.07;;;38.43;;
43646;SDS011;56152;49.996;18.980;2023-03-04T06:01:35;97.83;;;38.47;;
43646;SDS011;56152;49.996;18.980;2023-03-04T06:06:37;83.27;;;34.47;;
43646;SDS011;56152;49.996;18.980;2023-03-04T06:11:40;87.07;;;37.20;;
43646;SDS011;56152;49.996;18.980;2023-03-04T06:16:44;102.73;;;41.40;;
43646;SDS011;56152;49.996;18.980;2023-03-04T06:21:46;99.13;;;38.27;;
43646;SDS011;56152;49.996;18.980;2023-03-04T06:26:49;89.33;;;36.70;;
43646;SDS011;56152;49.996;18.980;2023-03-04T06:31:58;80.77;;;32.43;;
43646;SDS011;56152;49.996;18.980;2023-03-04T06:37:02;85.83;;;34.30;;
43646;SDS011;56152;49.996;18.980;2023-03-04T06:42:05;76.87;;;31.23;;
43646;SDS011;56152;49.996;18.980;2023-03-04T06:47:10;86.47;;;34.60;;
43646;SDS011;56152;49.996;18.980;2023-03-04T06:52:13;86.63;;;35.03;;
43646;SDS011;56152;49.996;18.980;2023-03-04T06:57:18;78.60;;;32.40;;
43646;SDS011;56152;49.996;18.980;2023-03-04T07:02:23;84.10;;;32.97;;
43646;SDS011;56152;49.996;18.980;2023-03-04T07:07:28;92.93;;;36.30;;
43646;SDS011;56152;49.996;18.980;2023-03-04T07:12:33;82.77;;;34.13;;
43646;SDS011;56152;49.996;18.980;2023-03-04T07:17:39;83.03;;;33.00;;
43646;SDS011;56152;49.996;18.980;2023-03-04T07:22:42;81.93;;;32.83;;
43646;SDS011;56152;49.996;18.980;2023-03-04T07:27:44;80.03;;;33.47;;
43646;SDS011;56152;49.996;18.980;2023-03-04T07:32:50;71.93;;;29.00;;
43646;SDS011;56152;49.996;18.980;2023-03-04T07:37:52;98.50;;;39.50;;
43646;SDS011;56152;49.996;18.980;2023-03-04T07:42:54;70.50;;;26.87;;
43646;SDS011;56152;49.996;18.980;2023-03-04T07:47:59;72.27;;;30.50;;
43646;SDS011;56152;49.996;18.980;2023-03-04T07:53:01;71.40;;;29.87;;
43646;SDS011;56152;49.996;18.980;2023-03-04T07:58:04;62.93;;;27.40;;
43646;SDS011;56152;49.996;18.980;2023-03-04T08:03:09;71.47;;;32.33;;
43646;SDS011;56152;49.996;18.980;2023-03-04T08:08:12;80.57;;;38.03;;
43646;SDS011;56152;49.996;18.980;2023-03-04T08:13:14;63.73;;;29.37;;
43646;SDS011;56152;49.996;18.980;2023-03-04T08:18:18;75.57;;;32.07;;
43646;SDS011;56152;49.996;18.980;2023-03-04T08:23:21;81.17;;;32.27;;
43646;SDS011;56152;49.996;18.980;2023-03-04T08:28:25;69.80;;;31.00;;
43646;SDS011;56152;49.996;18.980;2023-03-04T08:33:30;62.40;;;29.87;;
43646;SDS011;56152;49.996;18.980;2023-03-04T08:38:32;73.90;;;32.90;;
43646;SDS011;56152;49.996;18.980;2023-03-04T08:43:36;73.17;;;33.10;;
43646;SDS011;56152;49.996;18.980;2023-03-04T08:48:41;77.50;;;35.00;;
43646;SDS011;56152;49.996;18.980;2023-03-04T08:53:43;76.30;;;33.70;;
43646;SDS011;56152;49.996;18.980;2023-03-04T08:58:46;75.47;;;34.60;;
43646;SDS011;56152;49.996;18.980;2023-03-04T09:03:52;77.90;;;33.50;;
43646;SDS011;56152;49.996;18.980;2023-03-04T09:08:54;79.03;;;34.77;;
43646;SDS011;56152;49.996;18.980;2023-03-04T09:13:56;82.63;;;35.63;;
43646;SDS011;56152;49.996;18.980;2023-03-04T09:19:00;75.53;;;34.97;;
43646;SDS011;56152;49.996;18.980;2023-03-04T09:24:03;77.10;;;33.23;;
43646;SDS011;56152;49.996;18.980;2023-03-04T09:29:05;75.43;;;32.87;;
43646;SDS011;56152;49.996;18.980;2023-03-04T09:34:10;79.50;;;34.03;;
43646;SDS011;56152;49.996;18.980;2023-03-04T09:39:13;77.87;;;33.93;;
43646;SDS011;56152;49.996;18.980;2023-03-04T09:44:18;79.17;;;33.90;;
43646;SDS011;56152;49.996;18.980;2023-03-04T09:49:26;79.90;;;34.00;;
43646;SDS011;56152;49.996;18.980;2023-03-04T09:54:32;74.93;;;32.50;;
43646;SDS011;56152;49.996;18.980;2023-03-04T09:59:59;79.50;;;31.17;;
43646;SDS011;56152;49.996;18.980;2023-03-04T10:05:11;81.60;;;33.33;;
43646;SDS011;56152;49.996;18.980;2023-03-04T10:10:20;80.63;;;31.17;;
43646;SDS011;56152;49.996;18.980;2023-03-04T10:15:26;75.13;;;32.37;;
43646;SDS011;56152;49.996;18.980;2023-03-04T10:20:42;77.13;;;31.00;;
43646;SDS011;56152;49.996;18.980;2023-03-04T10:25:52;65.30;;;30.20;;
43646;SDS011;56152;49.996;18.980;2023-03-04T10:30:56;61.47;;;29.80;;
43646;SDS011;56152;49.996;18.980;2023-03-04T10:36:11;70.63;;;29.93;;
43646;SDS011;56152;49.996;18.980;2023-03-04T10:41:33;65.53;;;30.03;;
43646;SDS011;56152;49.996;18.980;2023-03-04T10:46:36;68.10;;;29.97;;
43646;SDS011;56152;49.996;18.980;2023-03-04T10:51:45;67.23;;;29.87;;
43646;SDS011;56152;49.996;18.980;2023-03-04T10:56:52;62.28;;;28.33;;
43646;SDS011;56152;49.996;18.980;2023-03-04T11:01:58;58.70;;;28.67;;
43646;SDS011;56152;49.996;18.980;2023-03-04T11:07:08;55.20;;;25.83;;
43646;SDS011;56152;49.996;18.980;2023-03-04T11:12:11;56.60;;;26.73;;
43646;SDS011;56152;49.996;18.980;2023-03-04T11:17:17;57.00;;;25.77;;
43646;SDS011;56152;49.996;18.980;2023-03-04T11:22:26;46.77;;;24.87;;
43646;SDS011;56152;49.996;18.980;2023-03-04T11:27:36;53.40;;;26.23;;
43646;SDS011;56152;49.996;18.980;2023-03-04T11:32:43;57.40;;;25.37;;
43646;SDS011;56152;49.996;18.980;2023-03-04T11:37:57;47.07;;;22.47;;
43646;SDS011;56152;49.996;18.980;2023-03-04T11:43:05;51.63;;;26.37;;
43646;SDS011;56152;49.996;18.980;2023-03-04T11:48:14;55.80;;;24.97;;
43646;SDS011;56152;49.996;18.980;2023-03-04T11:53:43;49.93;;;24.57;;
43646;SDS011;56152;49.996;18.980;2023-03-04T11:59:05;45.33;;;24.20;;
43646;SDS011;56152;49.996;18.980;2023-03-04T12:04:35;46.30;;;23.80;;
43646;SDS011;56152;49.996;18.980;2023-03-04T12:10:08;45.70;;;22.00;;
43646;SDS011;56152;49.996;18.980;2023-03-04T12:15:22;49.00;;;22.87;;
43646;SDS011;56152;49.996;18.980;2023-03-04T12:20:40;44.23;;;22.20;;
43646;SDS011;56152;49.996;18.980;2023-03-04T12:26:03;43.90;;;21.93;;
43646;SDS011;56152;49.996;18.980;2023-03-04T12:31:18;47.13;;;22.77;;
43646;SDS011;56152;49.996;18.980;2023-03-04T12:36:34;46.97;;;24.57;;
43646;SDS011;56152;49.996;18.980;2023-03-04T12:41:47;40.97;;;21.80;;
43646;SDS011;56152;49.996;18.980;2023-03-04T12:47:04;41.50;;;22.40;;
43646;SDS011;56152;49.996;18.980;2023-03-04T12:52:22;38.70;;;22.30;;
43646;SDS011;56152;49.996;18.980;2023-03-04T13:02:49;39.50;;;21.00;;
43646;SDS011;56152;49.996;18.980;2023-03-04T13:07:59;43.47;;;24.07;;
43646;SDS011;56152;49.996;18.980;2023-03-04T13:18:38;39.03;;;20.57;;
43646;SDS011;56152;49.996;18.980;2023-03-04T13:23:44;35.63;;;20.27;;
43646;SDS011;56152;49.996;18.980;2023-03-04T13:28:53;41.40;;;22.30;;
43646;SDS011;56152;49.996;18.980;2023-03-04T13:34:40;37.73;;;20.80;;
43646;SDS011;56152;49.996;18.980;2023-03-04T13:39:43;40.37;;;19.33;;
43646;SDS011;56152;49.996;18.980;2023-03-04T13:55:34;33.57;;;17.93;;
43646;SDS011;56152;49.996;18.980;2023-03-04T14:00:48;36.83;;;19.60;;
43646;SDS011;56152;49.996;18.980;2023-03-04T14:11:18;36.77;;;19.07;;
43646;SDS011;56152;49.996;18.980;2023-03-04T14:16:31;32.37;;;17.77;;
43646;SDS011;56152;49.996;18.980;2023-03-04T14:21:42;35.40;;;19.27;;
43646;SDS011;56152;49.996;18.980;2023-03-04T14:26:46;33.57;;;18.70;;
43646;SDS011;56152;49.996;18.980;2023-03-04T14:31:51;36.13;;;18.70;;
43646;SDS011;56152;49.996;18.980;2023-03-04T14:36:54;32.73;;;18.37;;
43646;SDS011;56152;49.996;18.980;2023-03-04T14:42:00;33.60;;;18.23;;
43646;SDS011;56152;49.996;18.980;2023-03-04T14:47:12;32.97;;;18.77;;
43646;SDS011;56152;49.996;18.980;2023-03-04T14:52:25;36.50;;;17.95;;
43646;SDS011;56152;49.996;18.980;2023-03-04T14:57:36;33.80;;;17.87;;
43646;SDS011;56152;49.996;18.980;2023-03-04T15:02:40;33.07;;;18.90;;
43646;SDS011;56152;49.996;18.980;2023-03-04T15:07:48;36.13;;;18.80;;
43646;SDS011;56152;49.996;18.980;2023-03-04T15:12:52;35.43;;;20.07;;
43646;SDS011;56152;49.996;18.980;2023-03-04T15:18:01;41.00;;;17.67;;
43646;SDS011;56152;49.996;18.980;2023-03-04T15:23:05;37.10;;;18.70;;
43646;SDS011;56152;49.996;18.980;2023-03-04T15:28:17;32.67;;;19.90;;
43646;SDS011;56152;49.996;18.980;2023-03-04T15:33:22;38.57;;;19.30;;
43646;SDS011;56152;49.996;18.980;2023-03-04T15:38:27;37.37;;;20.07;;
43646;SDS011;56152;49.996;18.980;2023-03-04T15:43:32;38.30;;;19.73;;
43646;SDS011;56152;49.996;18.980;2023-03-04T15:48:36;37.10;;;19.23;;
43646;SDS011;56152;49.996;18.980;2023-03-04T15:53:39;36.63;;;19.63;;
43646;SDS011;56152;49.996;18.980;2023-03-04T15:58:44;37.50;;;18.67;;
43646;SDS011;56152;49.996;18.980;2023-03-04T16:03:53;38.17;;;19.50;;
43646;SDS011;56152;49.996;18.980;2023-03-04T16:08:55;34.90;;;20.43;;
43646;SDS011;56152;49.996;18.980;2023-03-04T16:13:57;36.23;;;19.93;;
43646;SDS011;56152;49.996;18.980;2023-03-04T16:19:02;37.57;;;20.63;;
43646;SDS011;56152;49.996;18.980;2023-03-04T16:24:04;34.60;;;19.00;;
43646;SDS011;56152;49.996;18.980;2023-03-04T16:29:07;36.77;;;19.77;;
43646;SDS011;56152;49.996;18.980;2023-03-04T16:34:12;38.67;;;21.73;;
43646;SDS011;56152;49.996;18.980;2023-03-04T16:39:14;36.03;;;20.70;;
43646;SDS011;56152;49.996;18.980;2023-03-04T16:44:22;40.90;;;21.67;;
43646;SDS011;56152;49.996;18.980;2023-03-04T16:49:27;60.20;;;28.23;;
43646;SDS011;56152;49.996;18.980;2023-03-04T16:54:31;32.17;;;19.73;;
43646;SDS011;56152;49.996;18.980;2023-03-04T16:59:35;38.50;;;20.87;;
43646;SDS011;56152;49.996;18.980;2023-03-04T17:04:40;39.60;;;19.77;;
43646;SDS011;56152;49.996;18.980;2023-03-04T17:09:44;42.87;;;20.67;;
43646;SDS011;56152;49.996;18.980;2023-03-04T17:14:46;36.23;;;19.57;;
43646;SDS011;56152;49.996;18.980;2023-03-04T17:19:50;32.50;;;18.87;;
43646;SDS011;56152;49.996;18.980;2023-03-04T17:24:52;92.13;;;36.93;;
43646;SDS011;56152;49.996;18.980;2023-03-04T17:29:54;59.37;;;28.80;;
43646;SDS011;56152;49.996;18.980;2023-03-04T17:34:58;54.00;;;26.00;;
43646;SDS011;56152;49.996;18.980;2023-03-04T17:40:02;48.90;;;24.43;;
43646;SDS011;56152;49.996;18.980;2023-03-04T17:45:06;40.30;;;21.87;;
43646;SDS011;56152;49.996;18.980;2023-03-04T17:50:11;38.27;;;20.70;;
43646;SDS011;56152;49.996;18.980;2023-03-04T17:55:16;34.60;;;19.70;;
43646;SDS011;56152;49.996;18.980;2023-03-04T18:00:19;35.93;;;19.50;;
43646;SDS011;56152;49.996;18.980;2023-03-04T18:05:23;35.83;;;21.70;;
43646;SDS011;56152;49.996;18.980;2023-03-04T18:10:25;37.80;;;21.47;;
43646;SDS011;56152;49.996;18.980;2023-03-04T18:15:27;39.80;;;21.27;;
43646;SDS011;56152;49.996;18.980;2023-03-04T18:20:31;34.13;;;20.23;;
43646;SDS011;56152;49.996;18.980;2023-03-04T18:25:35;36.40;;;21.37;;
43646;SDS011;56152;49.996;18.980;2023-03-04T18:30:41;37.50;;;20.97;;
43646;SDS011;56152;49.996;18.980;2023-03-04T18:35:51;40.43;;;21.83;;
43646;SDS011;56152;49.996;18.980;2023-03-04T18:40:59;37.70;;;21.20;;
43646;SDS011;56152;49.996;18.980;2023-03-04T18:46:03;36.80;;;20.43;;
43646;SDS011;56152;49.996;18.980;2023-03-04T18:51:08;36.73;;;21.80;;
43646;SDS011;56152;49.996;18.980;2023-03-04T18:56:10;37.47;;;21.23;;
43646;SDS011;56152;49.996;18.980;2023-03-04T19:01:16;39.90;;;20.90;;
43646;SDS011;56152;49.996;18.980;2023-03-04T19:06:24;40.27;;;21.00;;
43646;SDS011;56152;49.996;18.980;2023-03-04T19:11:26;39.47;;;22.77;;
43646;SDS011;56152;49.996;18.980;2023-03-04T19:16:33;37.30;;;22.40;;
43646;SDS011;56152;49.996;18.980;2023-03-04T19:21:37;39.23;;;22.23;;
43646;SDS011;56152;49.996;18.980;2023-03-04T19:26:39;42.20;;;22.27;;
43646;SDS011;56152;49.996;18.980;2023-03-04T19:36:48;42.70;;;22.43;;
43646;SDS011;56152;49.996;18.980;2023-03-04T19:41:52;42.33;;;23.63;;
43646;SDS011;56152;49.996;18.980;2023-03-04T19:46:53;58.10;;;28.23;;
43646;SDS011;56152;49.996;18.980;2023-03-04T19:51:58;42.90;;;23.13;;
43646;SDS011;56152;49.996;18.980;2023-03-04T19:57:00;46.13;;;25.73;;
43646;SDS011;56152;49.996;18.980;2023-03-04T20:02:03;48.70;;;26.90;;
43646;SDS011;56152;49.996;18.980;2023-03-04T20:07:10;37.60;;;21.00;;
43646;SDS011;56152;49.996;18.980;2023-03-04T20:12:12;44.40;;;23.40;;
43646;SDS011;56152;49.996;18.980;2023-03-04T20:17:17;47.27;;;25.77;;
43646;SDS011;56152;49.996;18.980;2023-03-04T20:22:22;52.17;;;28.50;;
43646;SDS011;56152;49.996;18.980;2023-03-04T20:27:28;45.90;;;24.80;;
43646;SDS011;56152;49.996;18.980;2023-03-04T20:32:35;48.57;;;24.10;;
43646;SDS011;56152;49.996;18.980;2023-03-04T20:37:48;52.77;;;27.33;;
43646;SDS011;56152;49.996;18.980;2023-03-04T20:42:53;50.70;;;28.63;;
43646;SDS011;56152;49.996;18.980;2023-03-04T20:48:02;59.13;;;28.73;;
43646;SDS011;56152;49.996;18.980;2023-03-04T20:53:06;72.53;;;32.47;;
43646;SDS011;56152;49.996;18.980;2023-03-04T21:03:16;57.00;;;29.37;;
43646;SDS011;56152;49.996;18.980;2023-03-04T21:08:25;59.03;;;28.70;;
43646;SDS011;56152;49.996;18.980;2023-03-04T21:13:27;57.67;;;27.63;;
43646;SDS011;56152;49.996;18.980;2023-03-04T21:18:40;55.97;;;26.13;;
43646;SDS011;56152;49.996;18.980;2023-03-04T21:23:45;52.13;;;27.57;;
43646;SDS011;56152;49.996;18.980;2023-03-04T21:28:49;45.43;;;25.77;;
43646;SDS011;56152;49.996;18.980;2023-03-04T21:33:55;46.20;;;26.63;;
43646;SDS011;56152;49.996;18.980;2023-03-04T21:39:01;46.23;;;22.47;;
43646;SDS011;56152;49.996;18.980;2023-03-04T21:44:05;41.97;;;23.53;;
43646;SDS011;56152;49.996;18.980;2023-03-04T21:49:08;48.23;;;24.97;;
43646;SDS011;56152;49.996;18.980;2023-03-04T21:54:15;46.53;;;25.00;;
43646;SDS011;56152;49.996;18.980;2023-03-04T21:59:17;50.43;;;25.33;;
43646;SDS011;56152;49.996;18.980;2023-03-04T22:04:19;47.43;;;24.37;;
43646;SDS011;56152;49.996;18.980;2023-03-04T22:09:23;50.07;;;25.17;;
43646;SDS011;56152;49.996;18.980;2023-03-04T22:14:25;53.20;;;26.57;;
43646;SDS011;56152;49.996;18.980;2023-03-04T22:19:29;54.43;;;25.93;;
43646;SDS011;56152;49.996;18.980;2023-03-04T22:24:33;57.37;;;27.07;;
43646;SDS011;56152;49.996;18.980;2023-03-04T22:29:35;67.20;;;28.93;;
43646;SDS011;56152;49.996;18.980;2023-03-04T22:34:38;55.80;;;26.50;;
43646;SDS011;56152;49.996;18.980;2023-03-04T22:39:41;61.13;;;27.47;;
43646;SDS011;56152;49.996;18.980;2023-03-04T22:44:43;57.37;;;27.27;;
43646;SDS011;56152;49.996;18.980;2023-03-04T22:49:45;31.87;;;15.03;;
43646;SDS011;56152;49.996;18.980;2023-03-04T22:54:49;20.87;;;10.50;;
43646;SDS011;56152;49.996;18.980;2023-03-04T22:59:51;18.33;;;7.90;;
43646;SDS011;56152;49.996;18.980;2023-03-04T23:04:53;8.00;;;4.57;;
43646;SDS011;56152;49.996;18.980;2023-03-04T23:09:59;10.50;;;5.80;;
43646;SDS011;56152;49.996;18.980;2023-03-04T23:15:02;5.97;;;4.00;;
43646;SDS011;56152;49.996;18.980;2023-03-04T23:20:05;8.53;;;4.93;;
43646;SDS011;56152;49.996;18.980;2023-03-04T23:25:10;10.47;;;5.40;;
43646;SDS011;56152;49.996;18.980;2023-03-04T23:30:14;11.57;;;6.40;;
43646;SDS011;56152;49.996;18.980;2023-03-04T23:35:16;19.53;;;8.63;;
43646;SDS011;56152;49.996;18.980;2023-03-04T23:40:23;20.50;;;9.33;;
43646;SDS011;56152;49.996;18.980;2023-03-04T23:45:27;15.63;;;7.70;;
43646;SDS011;56152;49.996;18.980;2023-03-04T23:50:29;33.77;;;15.10;;
43646;SDS011;56152;49.996;18.980;2023-03-04T23:55:37;67.03;;;24.40;;
